Evendale, Ohio
Current Conditions -  °F | °C
As of 4:53 PM on Wednesday 22 Oct 2014 (Local Time) from KHAO Reporting Station
Broken Clouds Broken Clouds  
Wind Chill: 53°   Ceiling: 3200
Heat Index: 53°   Visibility: 10mi
Dew Point: 42°   Wind: 6mph
Humidity: 66%   Direction: 90°E
Pressure: 30.28"   Gusts: NA
Location:  39.2779°N, 84.4005°W
Report Text: KHAO 222053Z AUTO 09005KT 10SM BKN032 12/06 A3028 RMK AO2 SLP254 T01170056 56010
Loading
Personal Weather Stations






























Interactive Weather Map
Tropical Storm Tracking
New forecast layout! Learn more

10-Day Weather Forecast

Advertisements
Track Severe Weather on mobile